FYGA4: White River At Fayetteville, AR

                                SHEF ID:       FYGA4     White River near Fayetteville, A
STATION TYPE: Stream Gauge

PRECIP STAGE RIV-FLOW WTR-TEMP DIS-OXY PH CONDUCT BAT-LOAD
in ft cfs F mg/l su umho/cm volt
Ccp-Rev Ccp-Rev Ccp-Rev Ccp-Rev Ccp-Rev Ccp-Rev Ccp-Rev Ccp-Rev
(America/Chicago)
11/27 00:00 0.00 2.73 201 54.66 9.38 7.51 150 12.57
11/27 01:00 0.00 2.72 198 54.57 9.39 7.50 150 12.57
11/27 02:00 0.00 2.72 198 54.46 9.38 7.49 150 12.57
11/27 03:00 0.00 2.71 195 54.37 9.37 7.50 150 12.57
11/27 04:00 0.00 2.70 192 54.23 9.37 7.49 150 12.49
11/27 05:00 0.00 2.70 192 54.09 9.36 7.49 150 12.49
11/27 06:00 0.00 2.70 192 54.01 9.41 7.50 149 12.41
11/27 07:00 0.00 2.69 189 53.82 9.43 7.49 148 12.41
11/27 08:00 0.00 2.69 189 53.69 9.45 7.48 146 12.41
11/27 09:00 0.00 2.68 186 53.78 9.58 7.51 151 13.21
11/27 10:00 0.00 2.67 183 54.18 9.79 7.54 144 13.68
11/27 11:00 0.00 2.63 172 54.81 9.93 7.58 144 14.56
11/27 12:00 0.00 2.61 167 55.36 10.01 7.60 150 14.00
11/27 13:00 0.00 2.60 164 55.69 9.96 7.60 150 14.00
11/27 14:00 0.00 2.63 172 55.72 9.98 7.62 151 14.00
11/27 15:00 0.00 2.63 172 55.45 9.92 7.61 152 14.00
11/27 16:00 0.00 2.63 172 54.97 9.85 7.60 151 13.21
11/27 17:00 0.00 2.63 172 54.55 9.67 7.57 152 13.05
11/27 18:00 0.00 2.64 175 54.18 9.62 7.57 153 12.81
11/27 19:00 0.00 2.63 172 53.82 9.55 7.54 153 12.73
11/27 20:00 0.00 2.64 175 53.53 9.56 7.53 153 12.73
11/27 21:00 0.00 2.63 172 53.29 9.57 7.52 154 12.65
11/27 22:00 0.00 2.62 170 53.06 9.57 7.52 153 12.65
11/27 23:00 0.00 2.61 167 52.81 9.58 7.51 154 12.65
Data processed at Fri 28Nov2025 05:10 GMT

NOTICE: If you are parsing this page

Please convert to using our Data API. Starting January 1st, 2026 we will be migrating to: https://water.usace.army.mil with modern pages rendered in JavaScript. You will no longer be able to scrape this page! CWMSDataAPI (CDA)

Timeseries IDs (TSIDs)

TSIDs used from left to right in the data table
FAYE.Precip-Inc.Total.1Hour.1Hour.Ccp-Rev
FAYE.Stage.Inst.1Hour.0.Ccp-Rev
FAYE.Flow.Inst.1Hour.0.Ccp-Rev
FAYE.Temp-Water.Inst.1Hour.0.Ccp-Rev
FAYE.Conc-DO.Inst.1Hour.0.Ccp-Rev
FAYE.pH.Inst.1Hour.0.Ccp-Rev
FAYE.Cond-Water.Inst.1Hour.0.Ccp-Rev
FAYE.Volt-Battery Load.Inst.1Hour.0.Ccp-Rev

                            

All information presented herein is the property of the government of the United States of America and may be revised or deleted at any time without prior notice. Dissemination of this information without the expressed written consent of the Public Affairs Office, Tulsa District U.S. Army Corps of Engineers is strictly prohibited. These data are gathered electronically and, as presented, have NOT undergone any form of quality control. These data are NOT guaranteed to be valid or correct.